Time;durP1;ratioP1;P1;durP2;ratioP2;P2;SDS_P1;SDS_P2;PMS_P1;PMS_P2;Temp;Humidity;BMP_temperature;BMP_pressure;BME280_temperature;BME280_humidity;BME280_pressure;Samples;Min_cycle;Max_cycle;Signal;HPM_P1;HPM_P2
2021/03/06 00:01:56;;;;;;;;;;;;;;;0.91;97.46;99069.09;5053299;28;20033;-79
2021/03/06 00:04:22;;;;;;;9.05;5.55;;;;;;;0.95;97.84;99066.84;5053430;28;20590;-80
2021/03/06 00:06:47;;;;;;;;;;;;;;;1.08;97.48;99074.94;5055207;28;20062;-78
2021/03/06 00:09:13;;;;;;;8.00;4.60;;;;;;;0.91;96.16;99069.09;5055767;28;19932;-82
2021/03/06 00:11:39;;;;;;;7.43;5.53;;;;;;;0.96;97.32;99084.66;5058602;28;20021;-79
2021/03/06 00:14:04;;;;;;;6.78;5.22;;;;;;;0.93;97.56;99088.59;5054086;28;20033;-78
2021/03/06 00:16:30;;;;;;;;;;;;;;;0.90;95.97;99082.78;5053518;28;20027;-78
2021/03/06 00:18:55;;;;;;;8.25;5.10;;;;;;;0.85;96.93;99086.09;5054129;28;19970;-79
2021/03/06 00:21:21;;;;;;;7.78;5.72;;;;;;;0.85;96.82;99090.66;5053192;28;20045;-78
2021/03/06 00:23:46;;;;;;;9.77;5.53;;;;;;;0.76;95.54;99089.19;5053626;28;20135;-78
2021/03/06 00:26:12;;;;;;;;;;;;;;;0.82;95.27;99099.97;5053921;28;20082;-79
2021/03/06 00:28:37;;;;;;;9.60;5.18;;;;;;;0.82;96.24;99097.28;5052889;28;19908;-82
2021/03/06 00:31:02;;;;;;;8.68;6.35;;;;;;;0.70;95.25;99098.06;5052719;28;20082;-80
2021/03/06 00:33:28;;;;;;;6.93;5.07;;;;;;;0.72;95.36;99104.91;5053896;28;20397;-85
2021/03/06 00:35:53;;;;;;;;;;;;;;;0.80;95.33;99104.75;5052825;28;20021;-81
2021/03/06 00:38:19;;;;;;;8.38;5.88;;;;;;;0.90;94.25;99113.25;5053867;28;20047;-79
2021/03/06 00:40:44;;;;;;;;;;;;;;;0.82;93.87;99118.81;5052776;28;20029;-78
2021/03/06 00:43:09;;;;;;;6.93;4.85;;;;;;;0.74;93.90;99110.94;5052177;28;19916;-84
2021/03/06 00:45:35;;;;;;;;;;;;;;;0.76;94.18;99125.00;5053035;28;20025;-80
2021/03/06 00:48:00;;;;;;;9.82;5.22;;;;;;;0.80;94.82;99122.75;5052265;28;19917;-79
2021/03/06 00:50:28;;;;;;;;;;;;;;;0.81;94.97;99130.63;5052116;28;20021;-79
2021/03/06 00:52:53;;;;;;;10.10;6.50;;;;;;;0.87;94.43;99134.38;5053286;28;20399;-83
2021/03/06 00:55:18;;;;;;;8.38;5.05;;;;;;;0.77;93.25;99137.44;5053100;28;20033;-82
2021/03/06 00:57:44;;;;;;;9.88;6.38;;;;;;;0.73;92.86;99136.19;5052998;28;20025;-82
2021/03/06 01:00:10;;;;;;;;;;;;;;;0.83;93.07;99147.41;5054744;28;20044;-85
2021/03/06 01:02:35;;;;;;;7.20;5.05;;;;;;;0.71;92.87;99138.28;5054742;28;20626;-82
2021/03/06 01:05:00;;;;;;;;;;;;;;;0.72;92.39;99142.59;5055156;28;20028;-83
2021/03/06 01:07:26;;;;;;;7.63;5.38;;;;;;;0.77;91.81;99131.22;5054464;28;19959;-86
2021/03/06 01:09:51;;;;;;;;;;;;;;;0.89;92.08;99137.69;5054582;28;20029;-78
2021/03/06 01:12:16;;;;;;;7.80;5.00;;;;;;;0.83;91.79;99141.19;5057121;28;20270;-84
2021/03/06 01:14:42;;;;;;;;;;;;;;;0.66;90.70;99140.72;5055790;28;20078;-85
2021/03/06 01:17:07;;;;;;;11.48;6.50;;;;;;;0.62;92.03;99128.72;5058566;28;19924;-81
2021/03/06 01:19:32;;;;;;;;;;;;;;;0.61;91.45;99140.50;5059396;28;20112;-83
2021/03/06 01:21:58;;;;;;;12.80;5.97;;;;;;;0.68;92.86;99125.22;5054275;28;20391;-78
2021/03/06 01:24:23;;;;;;;;;;;;;;;0.74;92.34;99131.66;5051938;28;20048;-84
2021/03/06 01:26:49;;;;;;;9.55;6.05;;;;;;;0.76;92.11;99132.25;5051674;28;20399;-83
2021/03/06 01:29:15;;;;;;;7.70;5.57;;;;;;;0.68;91.20;99133.28;5052201;28;20029;-81
2021/03/06 01:31:40;;;;;;;10.70;5.82;;;;;;;0.68;91.93;99133.28;5053084;28;20113;-78
2021/03/06 01:34:06;;;;;;;;;;;;;;;0.63;90.94;99143.00;5052081;28;20505;-84
2021/03/06 01:36:31;;;;;;;8.18;6.03;;;;;;;0.63;91.63;99143.00;5052476;28;20373;-79
2021/03/06 01:38:56;;;;;;;;;;;;;;;0.63;91.22;99143.81;5052293;28;20033;-78
2021/03/06 01:41:22;;;;;;;10.52;6.82;;;;;;;0.63;91.90;99149.19;5053608;28;19917;-79
2021/03/06 01:43:47;;;;;;;;;;;;;;;0.54;90.88;99153.94;5054093;28;20422;-77
2021/03/06 01:46:12;;;;;;;12.65;6.40;;;;;;;0.54;91.08;99143.19;5054079;28;19951;-80
2021/03/06 01:48:38;;;;;;;;;;;;;;;0.57;90.70;99151.88;5056880;28;20077;-76
2021/03/06 01:51:03;;;;;;;10.38;5.38;;;;;;;0.63;91.57;99151.91;5053861;28;19916;-77
2021/03/06 01:53:29;;;;;;;;;;;;;;;0.69;90.45;99156.47;5053108;28;20021;-76
2021/03/06 01:55:55;;;;;;;7.22;5.53;;;;;;;0.51;90.40;99137.38;5052836;28;19913;-76
2021/03/06 01:58:20;;;;;;;;;;;;;;;0.52;90.03;99149.78;5052294;28;20044;-76
2021/03/06 02:00:45;;;;;;;9.38;5.80;;;;;;;0.54;91.32;99148.56;5051983;28;19913;-76
2021/03/06 02:03:11;;;;;;;;;;;;;;;0.55;91.46;99154.78;5052258;28;20072;-76
2021/03/06 02:05:37;;;;;;;9.02;6.00;;;;;;;0.58;90.99;99149.00;5050304;28;19916;-76
2021/03/06 02:08:03;;;;;;;10.95;5.78;;;;;;;0.52;90.63;99155.19;5050409;28;20052;-77
2021/03/06 02:10:35;;;;;;;8.23;6.00;;;;;;;0.63;91.21;99157.28;5051858;28;20024;-76
2021/03/06 02:13:16;;;;;;;9.88;7.50;;;;;;;0.73;89.78;99160.41;5051922;28;20021;-75
2021/03/06 02:16:10;;;;;;;9.57;6.35;;;;;;;0.64;90.30;99163.50;5051046;28;20025;-78
2021/03/06 02:18:45;;;;;;;8.00;5.90;;;;;;;0.59;89.68;99158.75;5051153;28;20077;-75
2021/03/06 02:21:48;;;;;;;8.80;5.43;;;;;;;0.66;90.05;99167.63;5051731;28;20504;-77
2021/03/06 02:24:22;;;;;;;9.73;5.82;;;;;;;0.53;88.06;99168.41;5055426;28;20039;-76
2021/03/06 02:26:56;;;;;;;9.35;5.13;;;;;;;0.47;88.35;99168.44;5052694;28;20028;-76
2021/03/06 02:29:37;;;;;;;7.93;5.97;;;;;;;0.50;88.70;99168.81;5051082;28;20068;-75
2021/03/06 02:32:14;;;;;;;9.43;5.43;;;;;;;0.58;88.43;99170.53;5051848;28;20021;-75
2021/03/06 02:34:45;;;;;;;10.52;6.15;;;;;;;0.58;88.02;99167.00;5051644;28;20099;-76
2021/03/06 02:37:11;;;;;;;12.40;5.28;;;;;;;0.48;87.74;99167.38;5049622;28;20421;-76
2021/03/06 02:39:43;;;;;;;8.38;6.20;;;;;;;0.44;86.64;99153.47;5049605;28;20480;-76
2021/03/06 02:42:11;;;;;;;6.95;5.60;;;;;;;0.40;86.24;99156.78;5050825;28;20017;-76
2021/03/06 02:44:37;;;;;;;7.63;5.28;;;;;;;0.66;87.54;99178.41;5049352;28;20532;-75
2021/03/06 02:47:03;;;;;;;9.40;5.32;;;;;;;0.58;86.07;99169.69;5049446;28;20041;-76
2021/03/06 02:49:28;;;;;;;8.50;5.35;;;;;;;0.60;86.32;99184.59;5050644;28;20363;-75
2021/03/06 02:51:54;;;;;;;9.32;5.45;;;;;;;0.69;85.97;99180.69;5050694;28;20027;-74
2021/03/06 02:54:19;;;;;;;;;;;;;;;0.71;85.15;99175.13;5051196;28;20033;-78
2021/03/06 02:56:45;;;;;;;7.30;5.00;;;;;;;0.59;84.41;99182.97;5050812;28;19913;-74
2021/03/06 02:59:11;;;;;;;7.35;4.30;;;;;;;0.49;83.83;99187.88;5053323;28;20033;-74
2021/03/06 03:01:42;;;;;;;;;;;;;;;0.54;83.08;99188.09;5055279;28;20032;-76
2021/03/06 03:04:40;;;;;;;8.15;5.47;;;;;;;0.74;83.88;99196.25;5054677;28;20267;-76
2021/03/06 03:07:16;;;;;;;6.72;4.80;;;;;;;0.58;82.32;99185.84;5056739;28;20032;-75
2021/03/06 03:09:44;;;;;;;6.82;4.32;;;;;;;0.64;81.30;99199.31;5053490;28;20115;-77
2021/03/06 03:12:14;;;;;;;5.53;4.35;;;;;;;0.63;82.36;99200.34;5053086;28;20118;-76
2021/03/06 03:15:04;;;;;;;8.20;5.75;;;;;;;0.67;82.98;99203.47;5054361;28;20082;-77
2021/03/06 03:17:40;;;;;;;10.15;5.07;;;;;;;0.52;80.20;99209.00;5054396;28;20032;-78
2021/03/06 03:20:11;;;;;;;7.05;5.05;;;;;;;0.63;81.24;99213.00;5054259;28;20028;-75
2021/03/06 03:22:41;;;;;;;8.10;5.13;;;;;;;0.71;80.56;99213.66;5054221;28;20028;-79
2021/03/06 03:25:09;;;;;;;8.80;4.85;;;;;;;0.69;80.04;99215.69;5054360;28;20021;-75
2021/03/06 03:27:36;;;;;;;6.20;4.07;;;;;;;0.65;79.25;99222.53;5054658;28;20028;-74
2021/03/06 03:30:05;;;;;;;11.60;5.07;;;;;;;0.62;79.23;99219.41;5055077;28;20545;-75
2021/03/06 03:32:31;;;;;;;6.30;4.18;;;;;;;0.56;78.44;99225.59;5054909;28;20082;-74
2021/03/06 03:34:58;;;;;;;7.38;5.28;;;;;;;0.46;77.46;99220.56;5055024;28;20017;-77
2021/03/06 03:37:25;;;;;;;10.82;6.03;;;;;;;0.39;77.44;99214.31;5055523;28;20057;-77
2021/03/06 03:39:51;;;;;;;8.65;5.28;;;;;;;0.40;78.59;99232.13;5044520;28;20044;-75
2021/03/06 03:42:20;;;;;;;6.68;4.28;;;;;;;0.40;77.21;99211.44;5053215;28;20094;-74
2021/03/06 03:44:47;;;;;;;6.07;4.00;;;;;;;0.40;78.56;99226.75;5056880;28;20107;-75
2021/03/06 03:47:13;;;;;;;7.95;3.97;;;;;;;0.35;77.49;99221.13;5061365;28;20047;-75
2021/03/06 03:49:38;;;;;;;7.05;4.40;;;;;;;0.39;76.50;99225.09;5053772;28;20478;-75
2021/03/06 03:52:04;;;;;;;;;;;;;;;0.41;76.25;99229.22;5054050;28;20066;-75
2021/03/06 03:54:30;;;;;;;6.05;4.45;;;;;;;0.33;75.43;99215.94;5053602;28;19920;-75
2021/03/06 03:56:56;;;;;;;6.53;4.03;;;;;;;0.27;75.85;99230.19;5053593;28;20035;-76
2021/03/06 03:59:21;;;;;;;6.97;4.20;;;;;;;0.21;76.35;99227.47;5053930;28;20025;-75
2021/03/06 04:01:47;;;;;;;5.38;4.00;;;;;;;0.29;76.91;99236.19;5053541;28;20025;-77
2021/03/06 04:04:32;;;;;;;8.45;3.42;;;;;;;0.37;73.52;99243.28;5052112;28;20056;-77
2021/03/06 04:06:59;;;;;;;4.90;2.75;;;;;;;0.36;74.17;99245.16;5053151;28;20032;-81
2021/03/06 04:09:25;;;;;;;5.95;3.45;;;;;;;0.29;74.18;99240.75;5053220;28;20032;-77
2021/03/06 04:11:51;;;;;;;5.07;3.38;;;;;;;0.23;73.06;99241.53;5052357;28;20405;-77
2021/03/06 04:14:16;;;;;;;7.15;3.40;;;;;;;0.15;73.50;99244.41;5053590;28;20078;-77
2021/03/06 04:16:45;;;;;;;7.30;3.97;;;;;;;0.10;75.52;99236.06;5053351;28;20155;-77
2021/03/06 04:19:10;;;;;;;4.88;2.95;;;;;;;0.12;73.77;99245.63;5053622;28;20029;-78
2021/03/06 04:21:35;;;;;;;7.75;4.60;;;;;;;0.19;74.70;99249.16;5051977;28;20170;-76
2021/03/06 04:24:01;;;;;;;;;;;;;;;0.17;74.39;99251.22;5052990;28;20036;-76
2021/03/06 04:26:26;;;;;;;6.18;3.63;;;;;;;0.18;73.66;99255.59;5053258;28;19924;-74
2021/03/06 04:28:52;;;;;;;;;;;;;;;0.28;74.13;99261.44;5052700;28;20043;-74
2021/03/06 04:31:17;;;;;;;7.43;3.65;;;;;;;0.32;74.12;99267.25;5053710;28;19970;-75
2021/03/06 04:33:43;;;;;;;;;;;;;;;0.19;74.22;99267.19;5053794;28;20385;-83
2021/03/06 04:36:08;;;;;;;6.05;4.05;;;;;;;0.17;75.00;99266.53;5047926;28;19921;-75
2021/03/06 04:38:34;;;;;;;;;;;;;;;0.22;74.08;99275.66;5042645;28;20064;-77
2021/03/06 04:41:00;;;;;;;5.35;3.35;;;;;;;0.23;72.38;99268.44;5034835;28;19917;-75
2021/03/06 04:43:25;;;;;;;;;;;;;;;0.17;72.04;99278.13;5085959;28;20106;-75
2021/03/06 04:45:50;;;;;;;4.15;2.38;;;;;;;0.08;71.02;99276.63;5055951;28;19920;-74
2021/03/06 04:48:15;;;;;;;;;;;;;;;0.19;67.58;99289.50;5052977;28;20428;-75
2021/03/06 04:50:41;;;;;;;4.55;2.47;;;;;;;0.15;68.31;99295.50;5052767;28;19912;-75
2021/03/06 04:53:06;;;;;;;;;;;;;;;0.16;68.03;99289.09;5052847;28;20021;-80
2021/03/06 04:55:32;;;;;;;2.65;1.92;;;;;;;0.12;66.00;99287.81;5035535;28;19917;-75
2021/03/06 04:57:57;;;;;;;;;;;;;;;0.15;65.56;99298.19;5031388;28;20029;-80
2021/03/06 05:00:23;;;;;;;6.55;2.50;;;;;;;0.08;65.91;99289.22;5031669;28;19939;-74
2021/03/06 05:02:48;;;;;;;;;;;;;;;0.09;67.30;99293.59;5032937;28;20068;-75
2021/03/06 05:05:14;;;;;;;6.15;3.25;;;;;;;0.03;68.56;99295.22;5031613;28;20350;-78
2021/03/06 05:07:39;;;;;;;;;;;;;;;-0.04;68.86;99297.84;5032643;28;20108;-76
2021/03/06 05:10:06;;;;;;;7.90;2.63;;;;;;;-0.04;69.93;99305.91;5032130;28;19966;-75
2021/03/06 05:12:31;;;;;;;5.35;2.65;;;;;;;-0.06;69.98;99307.94;5031988;28;20602;-76
2021/03/06 05:14:57;;;;;;;4.03;2.35;;;;;;;-0.13;71.63;99301.69;5031875;28;20021;-74
2021/03/06 05:17:22;;;;;;;4.53;2.33;;;;;;;-0.20;70.70;99316.09;5031786;28;20084;-73
2021/03/06 05:19:48;;;;;;;3.40;2.20;;;;;;;-0.30;70.04;99302.97;5030383;28;20083;-76
2021/03/06 05:22:13;;;;;;;3.92;3.00;;;;;;;-0.22;69.87;99318.16;5031379;28;20030;-73
2021/03/06 05:24:39;;;;;;;3.95;2.53;;;;;;;-0.28;69.87;99314.34;5032250;28;20068;-75
2021/03/06 05:27:04;;;;;;;;;;;;;;;-0.28;70.12;99314.34;5031287;28;20043;-75
2021/03/06 05:29:34;;;;;;;4.10;2.45;;;;;;;-0.32;71.19;99323.00;5050722;28;19920;-75
2021/03/06 05:32:04;;;;;;;5.55;2.65;;;;;;;-0.28;71.37;99332.38;5034180;28;20099;-74
2021/03/06 05:34:30;;;;;;;3.70;2.50;;;;;;;-0.38;71.47;99332.69;5042145;28;20029;-74
2021/03/06 05:36:55;;;;;;;3.00;2.45;;;;;;;-0.39;72.64;99325.63;5052204;28;20045;-75
2021/03/06 05:39:21;;;;;;;;;;;;;;;-0.26;72.37;99331.16;5051934;28;20021;-75
2021/03/06 05:41:47;;;;;;;3.35;2.35;;;;;;;-0.25;73.00;99346.22;5054894;28;19932;-76
2021/03/06 05:44:13;;;;;;;;;;;;;;;-0.11;72.82;99342.66;5056581;28;20381;-75
2021/03/06 05:46:38;;;;;;;5.27;2.73;;;;;;;-0.05;73.07;99346.41;5051725;28;19917;-77
2021/03/06 05:49:04;;;;;;;;;;;;;;;0.00;73.17;99355.56;5051118;28;20017;-74
2021/03/06 05:51:37;;;;;;;4.25;2.78;;;;;;;0.13;72.52;99352.16;5051334;28;19920;-74
2021/03/06 05:54:11;;;;;;;4.90;3.42;;;;;;;0.07;71.33;99338.66;5051628;28;20029;-76
2021/03/06 05:56:39;;;;;;;3.83;2.90;;;;;;;0.28;72.36;99352.09;5053710;28;20028;-73
2021/03/06 05:59:09;;;;;;;3.88;2.95;;;;;;;0.32;70.92;99343.41;5054487;28;20044;-75
2021/03/06 06:01:37;;;;;;;4.40;3.10;;;;;;;0.38;71.41;99353.41;5048267;28;20087;-76
2021/03/06 06:04:04;;;;;;;5.68;2.70;;;;;;;0.58;70.75;99356.25;5049613;28;20025;-75
2021/03/06 06:06:31;;;;;;;4.15;2.75;;;;;;;0.59;70.49;99355.22;5050028;28;20033;-74
2021/03/06 06:09:02;;;;;;;3.45;2.53;;;;;;;0.54;68.22;99363.88;5049653;28;20060;-75
2021/03/06 06:11:28;;;;;;;5.10;3.33;;;;;;;0.53;66.84;99362.19;5051449;28;20021;-74
2021/03/06 06:13:55;;;;;;;4.88;3.25;;;;;;;0.78;67.30;99376.06;5049852;28;20036;-74
2021/03/06 06:16:21;;;;;;;4.00;2.65;;;;;;;0.85;65.86;99370.69;5052019;28;20106;-75
2021/03/06 06:18:49;;;;;;;3.10;1.90;;;;;;;0.79;64.85;99366.09;5053736;28;20107;-73
2021/03/06 06:21:40;;;;;;;3.30;2.20;;;;;;;0.91;64.90;99378.81;5051641;28;20029;-73
2021/03/06 06:24:17;;;;;;;3.95;2.42;;;;;;;0.94;65.18;99373.03;5050694;28;20071;-76
2021/03/06 06:27:05;;;;;;;3.47;2.47;;;;;;;0.85;63.78;99371.53;5050611;28;20037;-74
2021/03/06 06:29:42;;;;;;;2.90;2.25;;;;;;;0.78;62.33;99383.31;5051222;28;20041;-77
2021/03/06 06:32:09;;;;;;;2.60;2.10;;;;;;;0.67;62.78;99379.28;5031791;28;20406;-73
2021/03/06 06:34:36;;;;;;;3.33;2.53;;;;;;;1.08;63.66;99377.47;5030634;28;20032;-74
2021/03/06 06:37:15;;;;;;;7.18;2.10;;;;;;;0.82;60.99;99387.25;5030065;28;20041;-75
2021/03/06 06:39:43;;;;;;;8.40;2.72;;;;;;;1.01;62.77;99394.59;5030724;28;20034;-74
2021/03/06 06:42:12;;;;;;;4.75;2.42;;;;;;;1.03;60.80;99396.06;5029209;28;20018;-75
2021/03/06 06:44:38;;;;;;;3.15;2.40;;;;;;;1.24;60.73;99391.63;5030525;28;20512;-75
2021/03/06 06:47:16;;;;;;;3.28;1.98;;;;;;;1.66;60.52;99410.25;5029188;28;20021;-75
2021/03/06 06:49:50;;;;;;;4.07;1.92;;;;;;;1.87;58.59;99406.59;5030393;28;20021;-74
2021/03/06 06:52:18;;;;;;;11.00;4.03;;;;;;;1.69;57.98;99409.03;5029692;28;20021;-75
2021/03/06 06:54:55;;;;;;;8.07;5.15;;;;;;;1.88;56.52;99417.16;5029675;28;20030;-83
2021/03/06 06:57:22;;;;;;;4.53;2.70;;;;;;;1.96;56.19;99414.28;5044907;28;20052;-81
2021/03/06 07:00:19;;;;;;;2.25;1.88;;;;;;;1.96;57.11;99421.53;5051110;28;20025;-74
2021/03/06 07:02:59;;;;;;;5.25;2.83;;;;;;;2.22;56.01;99429.72;5050647;28;20055;-84
2021/03/06 07:05:32;;;;;;;2.92;2.63;;;;;;;2.44;55.66;99427.66;5053217;28;20365;-81
2021/03/06 07:07:59;;;;;;;8.35;2.20;;;;;;;2.17;55.78;99424.91;5049839;28;20393;-76
2021/03/06 07:10:41;;;;;;;2.95;2.30;;;;;;;2.60;55.40;99438.84;5048891;28;20017;-74
2021/03/06 07:13:11;;;;;;;3.25;2.25;;;;;;;3.46;50.88;99433.31;5049506;28;20545;-86
2021/03/06 07:15:38;;;;;;;2.78;2.10;;;;;;;4.22;48.77;99445.03;5051283;28;20482;-85
2021/03/06 07:18:08;;;;;;;2.97;2.00;;;;;;;4.44;48.65;99437.41;5052500;28;20737;-81
2021/03/06 07:20:39;;;;;;;7.13;2.97;;;;;;;5.11;47.91;99447.44;5052939;28;20021;-73
2021/03/06 07:23:24;;;;;;;3.33;1.77;;;;;;;4.81;47.58;99441.91;5047960;28;20029;-74
2021/03/06 07:25:54;;;;;;;2.13;1.65;;;;;;;5.26;46.09;99442.53;5043485;28;20036;-75
2021/03/06 07:28:20;;;;;;;2.17;1.80;;;;;;;6.02;44.53;99442.06;5049456;28;20029;-76
2021/03/06 07:30:47;;;;;;;3.65;2.75;;;;;;;5.80;44.31;99452.53;5047047;28;20036;-85
2021/03/06 07:33:16;;;;;;;4.47;2.45;;;;;;;5.43;44.16;99448.16;5057516;28;20027;-87
2021/03/06 07:35:43;;;;;;;2.42;1.83;;;;;;;4.96;45.63;99453.22;5050783;28;20029;-76
2021/03/06 07:38:21;;;;;;;3.97;2.00;;;;;;;4.50;45.79;99459.03;5045223;28;20080;-76
2021/03/06 07:40:50;;;;;;;3.58;2.30;;;;;;;4.57;47.61;99465.25;5049395;28;20038;-76
2021/03/06 07:43:29;;;;;;;10.88;1.77;;;;;;;4.88;47.19;99455.41;5039185;28;20021;-75
2021/03/06 07:45:57;;;;;;;2.83;1.98;;;;;;;5.29;43.70;99464.56;5048989;28;20492;-76
2021/03/06 07:48:30;;;;;;;2.33;1.65;;;;;;;6.33;42.04;99474.44;5051538;28;20033;-75
2021/03/06 07:50:59;;;;;;;3.25;2.15;;;;;;;6.46;40.55;99450.63;5052767;28;20493;-76
2021/03/06 07:53:27;;;;;;;2.92;2.00;;;;;;;6.85;39.65;99464.66;5052836;28;20029;-74
2021/03/06 07:55:52;;;;;;;2.53;1.73;;;;;;;7.99;37.31;99466.72;5051298;28;20055;-74
2021/03/06 07:58:22;;;;;;;2.55;2.00;;;;;;;7.78;37.52;99483.72;5050761;28;20064;-74
2021/03/06 08:00:57;;;;;;;2.65;1.83;;;;;;;8.63;36.40;99478.34;5051307;28;20074;-74
2021/03/06 08:03:22;;;;;;;2.67;1.70;;;;;;;8.39;35.33;99483.94;5052707;28;20021;-74
2021/03/06 08:05:47;;;;;;;6.05;1.80;;;;;;;8.34;37.05;99475.63;5050761;28;20021;-76
2021/03/06 08:08:31;;;;;;;6.10;1.67;;;;;;;9.61;35.10;99482.19;5050987;28;20028;-75
2021/03/06 08:11:06;;;;;;;6.30;2.25;;;;;;;8.74;36.27;99485.66;5051948;28;20028;-75
2021/03/06 08:13:36;;;;;;;4.78;2.13;;;;;;;9.16;35.08;99478.72;5053198;28;20032;-75
2021/03/06 08:16:23;;;;;;;5.18;1.73;;;;;;;8.73;35.90;99484.00;5053736;28;20159;-75
2021/03/06 08:18:52;;;;;;;2.13;1.50;;;;;;;9.79;33.92;99478.31;5052934;28;20440;-74
2021/03/06 08:21:34;;;;;;;2.97;2.00;;;;;;;8.66;36.63;99484.16;5051888;28;20066;-76
2021/03/06 08:24:21;;;;;;;2.30;1.40;;;;;;;9.96;34.13;99486.47;5046257;28;20036;-74
2021/03/06 08:26:52;;;;;;;5.00;2.53;;;;;;;10.84;32.79;99482.59;5036362;28;20124;-75
2021/03/06 08:29:23;;;;;;;4.20;2.05;;;;;;;9.81;33.75;99469.84;5032431;28;20120;-75
2021/03/06 08:32:07;;;;;;;2.13;1.38;;;;;;;10.02;35.00;99471.78;5045227;28;20355;-77
2021/03/06 08:34:51;;;;;;;2.33;1.48;;;;;;;10.02;33.13;99475.31;5044799;28;20032;-74
2021/03/06 08:37:20;;;;;;;2.85;2.20;;;;;;;11.37;31.89;99471.50;5045591;28;20049;-75
2021/03/06 08:39:56;;;;;;;3.88;2.00;;;;;;;10.72;33.37;99485.47;5052371;28;20025;-84
2021/03/06 08:42:31;;;;;;;4.40;2.25;;;;;;;10.75;32.20;99480.31;5052357;28;20017;-78
2021/03/06 08:45:00;;;;;;;1.92;1.52;;;;;;;11.26;31.89;99475.28;5050792;28;20111;-74
2021/03/06 08:47:31;;;;;;;1.60;1.50;;;;;;;11.61;30.73;99481.00;5040139;28;20032;-74
2021/03/06 08:49:59;;;;;;;3.72;2.20;;;;;;;11.34;32.21;99484.94;5052987;28;20017;-77
2021/03/06 08:52:28;;;;;;;3.05;1.85;;;;;;;11.05;31.18;99484.41;5052476;28;20067;-73
2021/03/06 08:54:54;;;;;;;3.53;1.90;;;;;;;10.62;31.37;99477.13;5050276;28;20060;-75
2021/03/06 08:57:23;;;;;;;4.00;2.00;;;;;;;10.43;31.76;99473.13;5051513;28;20428;-76
2021/03/06 08:59:49;;;;;;;3.15;1.55;;;;;;;10.88;31.30;99480.97;5051054;28;20020;-80
2021/03/06 09:02:15;;;;;;;2.53;1.60;;;;;;;10.29;31.84;99471.84;5052462;28;20032;-79
2021/03/06 09:04:40;;;;;;;3.58;2.05;;;;;;;10.12;33.17;99470.00;5052151;28;20493;-80
2021/03/06 09:07:23;;;;;;;3.20;1.55;;;;;;;11.00;30.68;99476.13;5052092;28;20056;-81
2021/03/06 09:09:49;;;;;;;3.35;2.15;;;;;;;10.35;32.57;99470.84;5054385;28;20021;-77
2021/03/06 09:12:15;;;;;;;3.40;1.85;;;;;;;11.19;31.61;99467.28;5058142;28;20067;-86
2021/03/06 09:14:40;;;;;;;6.30;1.92;;;;;;;10.64;32.44;99467.63;5057817;28;20021;-89
2021/03/06 09:17:09;;;;;;;2.45;1.88;;;;;;;9.49;33.48;99472.44;5056313;28;20032;-92
2021/03/06 09:19:35;;;;;;;2.42;1.63;;;;;;;10.26;32.76;99467.75;5059970;28;20116;-88
2021/03/06 09:22:03;;;;;;;4.50;2.15;;;;;;;10.20;32.13;99460.56;5056671;28;20035;-91
2021/03/06 09:25:01;;;;;;;2.08;1.50;;;;;;;10.64;31.26;99470.34;5051664;28;20036;-76
2021/03/06 09:27:45;;;;;;;2.55;1.50;;;;;;;10.76;31.60;99467.44;5056273;28;20036;-88
2021/03/06 09:30:31;;;;;;;3.88;2.38;;;;;;;11.13;31.06;99468.31;5047734;28;20045;-79
2021/03/06 09:33:00;;;;;;;2.53;1.92;;;;;;;11.43;30.14;99467.75;5052578;28;20071;-87
2021/03/06 09:35:26;;;;;;;2.15;1.40;;;;;;;11.37;30.46;99466.03;5050182;28;20135;-78
2021/03/06 09:38:18;;;;;;;2.42;1.77;;;;;;;12.13;29.53;99466.50;5051403;28;20055;-84
2021/03/06 09:40:45;;;;;;;4.82;1.65;;;;;;;12.33;28.29;99466.59;5059516;28;20036;-81
2021/03/06 09:43:22;;;;;;;2.90;2.00;;;;;;;12.20;27.75;99454.19;5052852;28;20037;-79
2021/03/06 09:45:50;;;;;;;2.90;1.98;;;;;;;11.76;28.86;99464.69;5048434;28;20033;-80
2021/03/06 09:48:16;;;;;;;2.58;1.70;;;;;;;10.87;30.10;99466.44;5049882;28;20033;-82
2021/03/06 09:50:44;;;;;;;2.97;1.85;;;;;;;11.60;27.11;99462.06;5050489;28;20032;-79
2021/03/06 09:53:22;;;;;;;2.55;1.73;;;;;;;12.00;27.85;99445.88;5051118;28;20044;-79
2021/03/06 09:56:00;;;;;;;3.05;1.40;;;;;;;11.81;27.20;99450.16;5046560;28;20108;-76
2021/03/06 09:58:26;;;;;;;2.58;1.65;;;;;;;9.63;28.10;99454.59;5047829;28;20031;-75
2021/03/06 10:00:51;;;;;;;2.40;1.80;;;;;;;9.11;28.72;99465.03;5050601;28;20021;-75
2021/03/06 10:03:33;;;;;;;1.52;1.15;;;;;;;9.97;27.27;99450.66;5054317;28;20020;-87
2021/03/06 10:06:02;;;;;;;3.13;2.00;;;;;;;10.56;28.78;99457.13;5049082;28;20031;-74
2021/03/06 10:08:32;;;;;;;3.35;1.48;;;;;;;9.46;29.04;99451.09;5046591;28;20059;-75
2021/03/06 10:10:59;;;;;;;2.25;1.42;;;;;;;9.22;31.79;99442.25;5045636;28;20095;-74
2021/03/06 10:13:25;;;;;;;2.05;1.23;;;;;;;9.28;31.54;99438.50;5046329;28;20036;-74
2021/03/06 10:15:53;;;;;;;2.72;1.42;;;;;;;9.80;32.33;99455.38;5049105;28;20439;-74
2021/03/06 10:18:22;;;;;;;2.70;1.48;;;;;;;10.41;31.14;99447.91;5048952;28;20075;-73
2021/03/06 10:20:50;;;;;;;2.20;1.30;;;;;;;10.50;30.91;99440.91;5048503;28;20033;-80
2021/03/06 10:23:30;;;;;;;2.55;1.58;;;;;;;10.55;31.09;99444.53;5048331;28;20068;-74
2021/03/06 10:26:31;;;;;;;2.72;1.50;;;;;;;7.25;33.36;99453.94;5047139;28;20028;-75
2021/03/06 10:29:19;;;;;;;3.05;1.23;;;;;;;8.63;30.41;99432.00;5026401;28;20033;-76
2021/03/06 10:31:45;;;;;;;1.75;0.98;;;;;;;10.59;29.75;99434.72;5007469;28;20061;-75
2021/03/06 10:34:23;;;;;;;2.90;2.20;;;;;;;10.41;27.80;99436.97;5000791;28;20778;-76
2021/03/06 10:37:12;;;;;;;2.25;1.60;;;;;;;9.40;31.44;99433.78;5030995;28;20068;-76
2021/03/06 10:40:01;;;;;;;3.13;1.80;;;;;;;9.47;29.54;99447.25;5044387;28;20032;-75
2021/03/06 10:42:48;;;;;;;4.03;1.33;;;;;;;9.74;28.14;99426.34;5044268;28;20033;-76
2021/03/06 10:45:24;;;;;;;;;;;;;;;9.34;27.56;99421.13;5044728;28;20095;-75
2021/03/06 10:47:52;;;;;;;2.42;1.80;;;;;;;9.63;27.88;99419.91;5049742;28;19921;-76
2021/03/06 10:50:30;;;;;;;3.50;1.80;;;;;;;10.61;27.48;99418.03;5049292;28;20439;-76
2021/03/06 10:53:14;;;;;;;2.72;1.50;;;;;;;9.96;27.57;99420.88;5049269;28;20044;-74
2021/03/06 10:55:40;;;;;;;3.30;1.88;;;;;;;10.65;27.86;99422.72;5049710;28;20033;-74
2021/03/06 10:58:06;;;;;;;7.60;1.40;;;;;;;9.63;27.35;99408.16;5048263;28;20486;-77
2021/03/06 11:00:31;;;;;;;3.72;1.40;;;;;;;9.36;28.60;99410.81;5049772;28;20078;-76
2021/03/06 11:02:59;;;;;;;2.72;1.60;;;;;;;8.68;31.35;99419.25;5048930;28;20043;-75
2021/03/06 11:05:26;;;;;;;4.47;1.73;;;;;;;10.05;32.53;99408.41;5044738;28;20505;-75
2021/03/06 11:07:53;;;;;;;2.22;1.33;;;;;;;9.86;28.38;99407.09;5029510;28;20056;-74
2021/03/06 11:10:20;;;;;;;2.45;1.48;;;;;;;11.17;30.40;99400.16;5029554;28;20025;-75
2021/03/06 11:12:58;;;;;;;2.45;1.35;;;;;;;10.68;30.02;99408.53;5029520;28;20624;-76
2021/03/06 11:15:28;;;;;;;1.52;1.40;;;;;;;10.46;31.01;99399.56;5029597;28;20049;-74
2021/03/06 11:17:56;;;;;;;5.13;1.77;;;;;;;9.91;31.12;99393.47;5029101;28;20029;-74
2021/03/06 11:20:24;;;;;;;2.15;1.50;;;;;;;8.72;34.18;99395.03;5032533;28;20031;-74
2021/03/06 11:22:50;;;;;;;5.13;1.80;;;;;;;8.45;34.07;99401.16;5034021;28;20529;-74
2021/03/06 11:25:17;;;;;;;2.78;1.70;;;;;;;8.44;35.37;99398.66;5042026;28;20041;-75
2021/03/06 11:27:49;;;;;;;4.10;1.67;;;;;;;7.54;37.82;99383.03;5052678;28;20025;-76
2021/03/06 11:30:18;;;;;;;2.30;1.73;;;;;;;6.25;42.19;99388.66;5053141;28;20119;-74
2021/03/06 11:32:45;;;;;;;4.07;2.05;;;;;;;5.49;41.99;99384.84;5052254;28;20039;-78
2021/03/06 11:35:11;;;;;;;3.97;2.78;;;;;;;5.56;42.84;99382.91;5043975;28;20074;-77
2021/03/06 11:37:37;;;;;;;3.88;2.08;;;;;;;5.61;44.42;99378.44;5053324;28;20037;-78
2021/03/06 11:40:04;;;;;;;3.67;2.40;;;;;;;5.50;45.81;99378.38;5049042;28;20025;-76
2021/03/06 11:42:29;;;;;;;2.03;1.85;;;;;;;5.47;40.02;99371.53;5050933;28;20025;-75
2021/03/06 11:44:55;;;;;;;2.15;1.48;;;;;;;5.63;37.34;99351.09;5051419;28;20025;-74
2021/03/06 11:47:20;;;;;;;;;;;;;;;5.69;38.67;99361.03;5052630;28;20021;-74
2021/03/06 11:49:46;;;;;;;4.20;2.13;;;;;;;5.95;36.26;99358.00;5046354;28;19916;-75
2021/03/06 11:52:11;;;;;;;3.28;1.83;;;;;;;5.86;37.38;99351.19;5048542;28;20029;-75
2021/03/06 11:54:36;;;;;;;;;;;;;;;5.57;40.14;99346.56;5047263;28;20025;-77
2021/03/06 11:57:02;;;;;;;1.48;1.38;;;;;;;5.23;41.67;99338.00;5050712;28;19912;-75
2021/03/06 11:59:27;;;;;;;;;;;;;;;5.40;42.12;99330.91;5049563;28;20033;-74
2021/03/06 12:01:53;;;;;;;3.05;2.28;;;;;;;5.20;42.03;99341.16;5051552;28;19920;-74